sensor_id;sensor_type;location;lat;lon;timestamp;temperature;humidity
23271;DHT22;11804;51.118;17.058;2023-10-13T00:01:59;15.10;99.90
23271;DHT22;11804;51.118;17.058;2023-10-13T00:04:28;15.00;99.90
23271;DHT22;11804;51.118;17.058;2023-10-13T00:06:58;15.10;99.90
23271;DHT22;11804;51.118;17.058;2023-10-13T00:09:27;15.10;99.90
23271;DHT22;11804;51.118;17.058;2023-10-13T00:12:05;15.00;99.90
23271;DHT22;11804;51.118;17.058;2023-10-13T00:14:37;15.10;99.90
23271;DHT22;11804;51.118;17.058;2023-10-13T00:17:07;15.00;99.90
23271;DHT22;11804;51.118;17.058;2023-10-13T00:19:36;15.10;99.90
23271;DHT22;11804;51.118;17.058;2023-10-13T00:22:08;15.10;99.90
23271;DHT22;11804;51.118;17.058;2023-10-13T00:24:42;15.00;99.90
23271;DHT22;11804;51.118;17.058;2023-10-13T00:27:18;14.90;99.90
23271;DHT22;11804;51.118;17.058;2023-10-13T00:30:02;14.60;99.90
23271;DHT22;11804;51.118;17.058;2023-10-13T00:32:45;14.60;99.90
23271;DHT22;11804;51.118;17.058;2023-10-13T00:35:16;14.70;99.90
23271;DHT22;11804;51.118;17.058;2023-10-13T00:37:45;14.80;99.90
23271;DHT22;11804;51.118;17.058;2023-10-13T00:40:14;14.70;99.90
23271;DHT22;11804;51.118;17.058;2023-10-13T00:42:59;14.70;99.90
23271;DHT22;11804;51.118;17.058;2023-10-13T00:46:00;14.70;99.90
23271;DHT22;11804;51.118;17.058;2023-10-13T00:48:25;14.80;99.90
23271;DHT22;11804;51.118;17.058;2023-10-13T00:50:59;14.80;99.90
23271;DHT22;11804;51.118;17.058;2023-10-13T00:53:31;14.80;99.90
23271;DHT22;11804;51.118;17.058;2023-10-13T00:56:04;14.80;99.90
23271;DHT22;11804;51.118;17.058;2023-10-13T00:58:34;14.80;99.90
23271;DHT22;11804;51.118;17.058;2023-10-13T01:01:04;14.70;99.90
23271;DHT22;11804;51.118;17.058;2023-10-13T01:03:53;14.70;99.90
23271;DHT22;11804;51.118;17.058;2023-10-13T01:06:26;14.60;99.90
23271;DHT22;11804;51.118;17.058;2023-10-13T01:09:03;14.50;99.90
23271;DHT22;11804;51.118;17.058;2023-10-13T01:11:46;14.40;99.90
23271;DHT22;11804;51.118;17.058;2023-10-13T01:14:22;14.60;99.90
23271;DHT22;11804;51.118;17.058;2023-10-13T01:16:51;14.60;99.90
23271;DHT22;11804;51.118;17.058;2023-10-13T01:19:23;14.70;99.90
23271;DHT22;11804;51.118;17.058;2023-10-13T01:21:55;14.70;99.90
23271;DHT22;11804;51.118;17.058;2023-10-13T01:24:31;14.60;99.90
23271;DHT22;11804;51.118;17.058;2023-10-13T01:27:00;14.60;99.90
23271;DHT22;11804;51.118;17.058;2023-10-13T01:29:30;14.60;99.90
23271;DHT22;11804;51.118;17.058;2023-10-13T01:31:57;14.70;99.90
23271;DHT22;11804;51.118;17.058;2023-10-13T01:34:25;14.70;99.90
23271;DHT22;11804;51.118;17.058;2023-10-13T01:36:54;14.50;99.90
23271;DHT22;11804;51.118;17.058;2023-10-13T01:39:24;14.50;99.90
23271;DHT22;11804;51.118;17.058;2023-10-13T01:41:56;14.30;99.90
23271;DHT22;11804;51.118;17.058;2023-10-13T01:44:24;14.30;99.90
23271;DHT22;11804;51.118;17.058;2023-10-13T01:47:00;14.30;99.90
23271;DHT22;11804;51.118;17.058;2023-10-13T01:49:34;14.40;99.90
23271;DHT22;11804;51.118;17.058;2023-10-13T01:52:04;14.40;99.90
23271;DHT22;11804;51.118;17.058;2023-10-13T01:54:31;14.50;99.90
23271;DHT22;11804;51.118;17.058;2023-10-13T01:56:59;14.60;99.90
23271;DHT22;11804;51.118;17.058;2023-10-13T01:59:26;14.60;99.90
23271;DHT22;11804;51.118;17.058;2023-10-13T02:01:54;14.60;99.90
23271;DHT22;11804;51.118;17.058;2023-10-13T02:04:23;14.70;99.90
23271;DHT22;11804;51.118;17.058;2023-10-13T02:06:51;14.60;99.90
23271;DHT22;11804;51.118;17.058;2023-10-13T02:09:20;14.50;99.90
23271;DHT22;11804;51.118;17.058;2023-10-13T02:11:53;14.30;99.90
23271;DHT22;11804;51.118;17.058;2023-10-13T02:14:22;14.30;99.90
23271;DHT22;11804;51.118;17.058;2023-10-13T02:16:51;14.30;99.90
23271;DHT22;11804;51.118;17.058;2023-10-13T02:19:20;14.40;99.90
23271;DHT22;11804;51.118;17.058;2023-10-13T02:21:48;14.50;99.90
23271;DHT22;11804;51.118;17.058;2023-10-13T02:24:17;14.50;99.90
23271;DHT22;11804;51.118;17.058;2023-10-13T02:26:47;14.60;99.90
23271;DHT22;11804;51.118;17.058;2023-10-13T02:29:14;14.60;99.90
23271;DHT22;11804;51.118;17.058;2023-10-13T02:31:44;14.60;99.90
23271;DHT22;11804;51.118;17.058;2023-10-13T02:34:13;14.60;99.90
23271;DHT22;11804;51.118;17.058;2023-10-13T02:36:41;14.70;99.90
23271;DHT22;11804;51.118;17.058;2023-10-13T02:39:17;14.70;99.90
23271;DHT22;11804;51.118;17.058;2023-10-13T02:41:47;14.60;99.90
23271;DHT22;11804;51.118;17.058;2023-10-13T02:44:15;14.60;99.90
23271;DHT22;11804;51.118;17.058;2023-10-13T02:46:47;14.60;99.90
23271;DHT22;11804;51.118;17.058;2023-10-13T02:49:16;14.60;99.90
23271;DHT22;11804;51.118;17.058;2023-10-13T02:51:45;14.60;99.90
23271;DHT22;11804;51.118;17.058;2023-10-13T02:54:13;14.60;99.90
23271;DHT22;11804;51.118;17.058;2023-10-13T02:56:46;14.60;99.90
23271;DHT22;11804;51.118;17.058;2023-10-13T02:59:16;14.60;99.90
23271;DHT22;11804;51.118;17.058;2023-10-13T03:01:45;14.60;99.90
23271;DHT22;11804;51.118;17.058;2023-10-13T03:04:13;14.60;99.90
23271;DHT22;11804;51.118;17.058;2023-10-13T03:06:40;14.60;99.90
23271;DHT22;11804;51.118;17.058;2023-10-13T03:09:09;14.50;99.90
23271;DHT22;11804;51.118;17.058;2023-10-13T03:11:49;14.50;99.90
23271;DHT22;11804;51.118;17.058;2023-10-13T03:14:21;14.50;99.90
23271;DHT22;11804;51.118;17.058;2023-10-13T03:16:55;14.50;99.90
23271;DHT22;11804;51.118;17.058;2023-10-13T03:19:24;14.60;99.90
23271;DHT22;11804;51.118;17.058;2023-10-13T03:21:54;14.60;99.90
23271;DHT22;11804;51.118;17.058;2023-10-13T03:24:28;14.60;99.90
23271;DHT22;11804;51.118;17.058;2023-10-13T03:27:02;14.60;99.90
23271;DHT22;11804;51.118;17.058;2023-10-13T03:29:37;14.50;99.90
23271;DHT22;11804;51.118;17.058;2023-10-13T03:32:06;14.50;99.90
23271;DHT22;11804;51.118;17.058;2023-10-13T03:34:35;14.50;99.90
23271;DHT22;11804;51.118;17.058;2023-10-13T03:37:05;14.40;99.90
23271;DHT22;11804;51.118;17.058;2023-10-13T03:39:34;14.50;99.90
23271;DHT22;11804;51.118;17.058;2023-10-13T03:42:01;14.40;99.90
23271;DHT22;11804;51.118;17.058;2023-10-13T03:44:31;14.40;99.90
23271;DHT22;11804;51.118;17.058;2023-10-13T03:46:59;14.30;99.90
23271;DHT22;11804;51.118;17.058;2023-10-13T03:49:28;14.20;99.90
23271;DHT22;11804;51.118;17.058;2023-10-13T03:51:57;14.30;99.90
23271;DHT22;11804;51.118;17.058;2023-10-13T03:54:25;14.30;99.90
23271;DHT22;11804;51.118;17.058;2023-10-13T03:56:54;14.30;99.90
23271;DHT22;11804;51.118;17.058;2023-10-13T03:59:22;14.30;99.90
23271;DHT22;11804;51.118;17.058;2023-10-13T04:01:51;14.40;99.90
23271;DHT22;11804;51.118;17.058;2023-10-13T04:04:20;14.40;99.90
23271;DHT22;11804;51.118;17.058;2023-10-13T04:07:05;14.30;99.90
23271;DHT22;11804;51.118;17.058;2023-10-13T04:09:38;14.30;99.90
23271;DHT22;11804;51.118;17.058;2023-10-13T04:12:08;14.30;99.90
23271;DHT22;11804;51.118;17.058;2023-10-13T04:14:42;14.40;99.90
23271;DHT22;11804;51.118;17.058;2023-10-13T04:17:27;14.50;99.90
23271;DHT22;11804;51.118;17.058;2023-10-13T04:19:57;14.60;99.90
23271;DHT22;11804;51.118;17.058;2023-10-13T04:22:43;14.60;99.90
23271;DHT22;11804;51.118;17.058;2023-10-13T04:25:23;14.70;99.90
23271;DHT22;11804;51.118;17.058;2023-10-13T04:28:12;14.70;99.90
23271;DHT22;11804;51.118;17.058;2023-10-13T04:30:45;14.80;99.90
23271;DHT22;11804;51.118;17.058;2023-10-13T04:33:24;14.70;99.90
23271;DHT22;11804;51.118;17.058;2023-10-13T04:36:05;14.70;99.90
23271;DHT22;11804;51.118;17.058;2023-10-13T04:38:34;14.70;99.90
23271;DHT22;11804;51.118;17.058;2023-10-13T04:41:03;14.80;99.90
23271;DHT22;11804;51.118;17.058;2023-10-13T04:43:33;14.80;99.90
23271;DHT22;11804;51.118;17.058;2023-10-13T04:46:02;14.70;99.90
23271;DHT22;11804;51.118;17.058;2023-10-13T04:48:43;14.80;99.90
23271;DHT22;11804;51.118;17.058;2023-10-13T04:51:12;14.80;99.90
23271;DHT22;11804;51.118;17.058;2023-10-13T04:54:00;14.80;99.90
23271;DHT22;11804;51.118;17.058;2023-10-13T04:56:29;14.90;99.90
23271;DHT22;11804;51.118;17.058;2023-10-13T04:59:10;14.90;99.90
23271;DHT22;11804;51.118;17.058;2023-10-13T05:01:55;14.90;99.90
23271;DHT22;11804;51.118;17.058;2023-10-13T05:04:41;14.90;99.90
23271;DHT22;11804;51.118;17.058;2023-10-13T05:07:26;14.90;99.90
23271;DHT22;11804;51.118;17.058;2023-10-13T05:10:12;15.00;99.90
23271;DHT22;11804;51.118;17.058;2023-10-13T05:12:57;15.00;99.90
23271;DHT22;11804;51.118;17.058;2023-10-13T05:15:44;15.00;99.90
23271;DHT22;11804;51.118;17.058;2023-10-13T05:18:31;15.00;99.90
23271;DHT22;11804;51.118;17.058;2023-10-13T05:21:17;15.00;99.90
23271;DHT22;11804;51.118;17.058;2023-10-13T05:24:04;15.00;99.90
23271;DHT22;11804;51.118;17.058;2023-10-13T05:26:52;15.00;99.90
23271;DHT22;11804;51.118;17.058;2023-10-13T05:29:42;15.00;99.90
23271;DHT22;11804;51.118;17.058;2023-10-13T05:32:28;15.10;99.90
23271;DHT22;11804;51.118;17.058;2023-10-13T05:35:14;15.10;99.90
23271;DHT22;11804;51.118;17.058;2023-10-13T05:38:01;15.10;99.90
23271;DHT22;11804;51.118;17.058;2023-10-13T05:41:04;15.20;99.90
23271;DHT22;11804;51.118;17.058;2023-10-13T05:43:50;15.20;99.90
23271;DHT22;11804;51.118;17.058;2023-10-13T05:46:35;15.30;99.90
23271;DHT22;11804;51.118;17.058;2023-10-13T05:49:08;15.30;99.90
23271;DHT22;11804;51.118;17.058;2023-10-13T05:51:38;15.30;99.90
23271;DHT22;11804;51.118;17.058;2023-10-13T05:54:11;15.30;99.90
23271;DHT22;11804;51.118;17.058;2023-10-13T05:56:50;15.30;99.90
23271;DHT22;11804;51.118;17.058;2023-10-13T05:59:40;15.30;99.90
23271;DHT22;11804;51.118;17.058;2023-10-13T06:02:25;15.40;99.90
23271;DHT22;11804;51.118;17.058;2023-10-13T06:05:12;15.40;99.90
23271;DHT22;11804;51.118;17.058;2023-10-13T06:07:59;15.30;99.90
23271;DHT22;11804;51.118;17.058;2023-10-13T06:10:47;15.40;99.90
23271;DHT22;11804;51.118;17.058;2023-10-13T06:13:32;15.40;99.90
23271;DHT22;11804;51.118;17.058;2023-10-13T06:16:18;15.40;99.90
23271;DHT22;11804;51.118;17.058;2023-10-13T06:19:03;15.40;99.90
23271;DHT22;11804;51.118;17.058;2023-10-13T06:21:49;15.50;99.90
23271;DHT22;11804;51.118;17.058;2023-10-13T06:24:34;15.40;99.90
23271;DHT22;11804;51.118;17.058;2023-10-13T06:27:20;15.50;99.90
23271;DHT22;11804;51.118;17.058;2023-10-13T06:30:06;15.50;99.90
23271;DHT22;11804;51.118;17.058;2023-10-13T06:32:34;15.50;99.90
23271;DHT22;11804;51.118;17.058;2023-10-13T06:35:04;15.50;99.90
23271;DHT22;11804;51.118;17.058;2023-10-13T06:37:33;15.50;99.90
23271;DHT22;11804;51.118;17.058;2023-10-13T06:40:08;15.40;99.90
23271;DHT22;11804;51.118;17.058;2023-10-13T06:42:34;15.40;99.90
23271;DHT22;11804;51.118;17.058;2023-10-13T06:45:04;15.60;99.90
23271;DHT22;11804;51.118;17.058;2023-10-13T06:47:37;15.70;99.90
23271;DHT22;11804;51.118;17.058;2023-10-13T06:50:09;15.60;99.90
23271;DHT22;11804;51.118;17.058;2023-10-13T06:52:50;15.60;99.90
23271;DHT22;11804;51.118;17.058;2023-10-13T06:55:19;15.60;99.90
23271;DHT22;11804;51.118;17.058;2023-10-13T06:57:56;15.60;99.90
23271;DHT22;11804;51.118;17.058;2023-10-13T07:00:30;15.70;99.90
23271;DHT22;11804;51.118;17.058;2023-10-13T07:03:00;15.70;99.90
23271;DHT22;11804;51.118;17.058;2023-10-13T07:05:40;15.70;99.90
23271;DHT22;11804;51.118;17.058;2023-10-13T07:08:11;15.80;99.90
23271;DHT22;11804;51.118;17.058;2023-10-13T07:10:48;15.80;99.90
23271;DHT22;11804;51.118;17.058;2023-10-13T07:13:18;15.80;99.90
23271;DHT22;11804;51.118;17.058;2023-10-13T07:15:47;15.90;99.90
23271;DHT22;11804;51.118;17.058;2023-10-13T07:18:15;16.00;99.90
23271;DHT22;11804;51.118;17.058;2023-10-13T07:20:47;16.00;99.90
23271;DHT22;11804;51.118;17.058;2023-10-13T07:23:15;16.00;99.90
23271;DHT22;11804;51.118;17.058;2023-10-13T07:25:54;16.00;99.90
23271;DHT22;11804;51.118;17.058;2023-10-13T07:28:23;16.10;99.90
23271;DHT22;11804;51.118;17.058;2023-10-13T07:30:51;16.20;99.90
23271;DHT22;11804;51.118;17.058;2023-10-13T07:33:23;16.30;99.90
23271;DHT22;11804;51.118;17.058;2023-10-13T07:36:02;16.40;99.90
23271;DHT22;11804;51.118;17.058;2023-10-13T07:38:43;16.60;99.90
23271;DHT22;11804;51.118;17.058;2023-10-13T07:41:12;16.70;99.90
23271;DHT22;11804;51.118;17.058;2023-10-13T07:43:44;16.90;99.90
23271;DHT22;11804;51.118;17.058;2023-10-13T07:46:11;17.10;99.90
23271;DHT22;11804;51.118;17.058;2023-10-13T07:48:39;17.30;99.90
23271;DHT22;11804;51.118;17.058;2023-10-13T07:51:10;17.50;99.90
23271;DHT22;11804;51.118;17.058;2023-10-13T07:53:45;18.00;99.90
23271;DHT22;11804;51.118;17.058;2023-10-13T07:56:15;19.10;99.90
23271;DHT22;11804;51.118;17.058;2023-10-13T07:58:45;20.20;99.90
23271;DHT22;11804;51.118;17.058;2023-10-13T08:01:26;20.80;99.90
23271;DHT22;11804;51.118;17.058;2023-10-13T08:03:54;21.60;99.90
23271;DHT22;11804;51.118;17.058;2023-10-13T08:06:35;21.80;99.90
23271;DHT22;11804;51.118;17.058;2023-10-13T08:09:03;22.80;97.70
23271;DHT22;11804;51.118;17.058;2023-10-13T08:11:36;23.40;91.80
23271;DHT22;11804;51.118;17.058;2023-10-13T08:14:05;23.70;89.70
23271;DHT22;11804;51.118;17.058;2023-10-13T08:16:41;23.30;91.20
23271;DHT22;11804;51.118;17.058;2023-10-13T08:19:19;23.70;84.30
23271;DHT22;11804;51.118;17.058;2023-10-13T08:21:45;23.60;87.70
23271;DHT22;11804;51.118;17.058;2023-10-13T08:24:20;24.70;80.90
23271;DHT22;11804;51.118;17.058;2023-10-13T08:27:08;24.70;78.40
23271;DHT22;11804;51.118;17.058;2023-10-13T08:29:45;24.80;79.40
23271;DHT22;11804;51.118;17.058;2023-10-13T08:32:17;24.60;78.10
23271;DHT22;11804;51.118;17.058;2023-10-13T08:35:00;25.20;74.40
23271;DHT22;11804;51.118;17.058;2023-10-13T08:37:33;24.60;74.40
23271;DHT22;11804;51.118;17.058;2023-10-13T08:40:02;24.50;76.60
23271;DHT22;11804;51.118;17.058;2023-10-13T08:42:32;24.60;76.00
23271;DHT22;11804;51.118;17.058;2023-10-13T08:45:09;24.50;76.30
23271;DHT22;11804;51.118;17.058;2023-10-13T08:47:51;24.40;76.50
23271;DHT22;11804;51.118;17.058;2023-10-13T08:50:50;24.00;81.50
23271;DHT22;11804;51.118;17.058;2023-10-13T08:53:27;24.10;80.70
23271;DHT22;11804;51.118;17.058;2023-10-13T08:56:06;23.90;85.80
23271;DHT22;11804;51.118;17.058;2023-10-13T08:58:48;24.10;81.90
23271;DHT22;11804;51.118;17.058;2023-10-13T09:01:26;24.60;79.40
23271;DHT22;11804;51.118;17.058;2023-10-13T09:04:13;24.70;75.20
23271;DHT22;11804;51.118;17.058;2023-10-13T09:07:06;24.60;76.10
23271;DHT22;11804;51.118;17.058;2023-10-13T09:12:15;23.90;81.40
23271;DHT22;11804;51.118;17.058;2023-10-13T09:14:56;23.80;81.80
23271;DHT22;11804;51.118;17.058;2023-10-13T09:17:17;23.50;83.70
23271;DHT22;11804;51.118;17.058;2023-10-13T09:20:06;23.00;84.50
23271;DHT22;11804;51.118;17.058;2023-10-13T09:22:52;22.90;85.20
23271;DHT22;11804;51.118;17.058;2023-10-13T09:25:32;23.20;84.90
23271;DHT22;11804;51.118;17.058;2023-10-13T09:28:11;23.00;83.40
23271;DHT22;11804;51.118;17.058;2023-10-13T09:33:13;22.10;90.00
23271;DHT22;11804;51.118;17.058;2023-10-13T09:35:45;22.00;91.00
23271;DHT22;11804;51.118;17.058;2023-10-13T09:38:20;22.60;90.30
23271;DHT22;11804;51.118;17.058;2023-10-13T09:40:48;22.30;90.40
23271;DHT22;11804;51.118;17.058;2023-10-13T09:43:20;22.00;92.40
23271;DHT22;11804;51.118;17.058;2023-10-13T09:45:49;21.30;94.10
23271;DHT22;11804;51.118;17.058;2023-10-13T09:48:34;20.80;97.20
23271;DHT22;11804;51.118;17.058;2023-10-13T09:51:03;20.70;98.70
23271;DHT22;11804;51.118;17.058;2023-10-13T09:53:36;20.70;99.70
23271;DHT22;11804;51.118;17.058;2023-10-13T09:56:18;20.80;99.40
23271;DHT22;11804;51.118;17.058;2023-10-13T09:59:00;20.80;99.90
23271;DHT22;11804;51.118;17.058;2023-10-13T10:01:31;21.00;99.90
23271;DHT22;11804;51.118;17.058;2023-10-13T10:04:14;21.70;97.70
23271;DHT22;11804;51.118;17.058;2023-10-13T10:06:54;22.10;94.40
23271;DHT22;11804;51.118;17.058;2023-10-13T10:09:30;22.50;92.30
23271;DHT22;11804;51.118;17.058;2023-10-13T10:17:44;22.40;91.40
23271;DHT22;11804;51.118;17.058;2023-10-13T10:20:12;22.50;91.70
23271;DHT22;11804;51.118;17.058;2023-10-13T10:22:56;22.40;91.20
23271;DHT22;11804;51.118;17.058;2023-10-13T10:25:33;22.70;90.50
23271;DHT22;11804;51.118;17.058;2023-10-13T10:28:06;22.40;90.70
23271;DHT22;11804;51.118;17.058;2023-10-13T10:30:36;22.20;91.70
23271;DHT22;11804;51.118;17.058;2023-10-13T10:33:06;22.80;92.20
23271;DHT22;11804;51.118;17.058;2023-10-13T10:35:42;23.20;84.80
23271;DHT22;11804;51.118;17.058;2023-10-13T10:38:18;23.10;83.30
23271;DHT22;11804;51.118;17.058;2023-10-13T10:40:57;23.50;82.30
23271;DHT22;11804;51.118;17.058;2023-10-13T10:43:25;23.40;79.90
23271;DHT22;11804;51.118;17.058;2023-10-13T10:45:55;23.40;81.40
23271;DHT22;11804;51.118;17.058;2023-10-13T10:48:26;23.10;82.50
23271;DHT22;11804;51.118;17.058;2023-10-13T10:51:02;23.30;83.00
23271;DHT22;11804;51.118;17.058;2023-10-13T10:53:37;23.10;83.90
23271;DHT22;11804;51.118;17.058;2023-10-13T10:56:12;22.70;85.60
23271;DHT22;11804;51.118;17.058;2023-10-13T10:58:56;22.50;89.30
23271;DHT22;11804;51.118;17.058;2023-10-13T11:01:26;22.20;91.40
23271;DHT22;11804;51.118;17.058;2023-10-13T11:04:05;22.00;92.10
23271;DHT22;11804;51.118;17.058;2023-10-13T11:06:52;21.80;94.10
23271;DHT22;11804;51.118;17.058;2023-10-13T11:09:31;21.60;94.60
23271;DHT22;11804;51.118;17.058;2023-10-13T11:15:05;21.30;96.70
23271;DHT22;11804;51.118;17.058;2023-10-13T11:17:47;21.50;97.40
23271;DHT22;11804;51.118;17.058;2023-10-13T11:20:24;21.70;95.10
23271;DHT22;11804;51.118;17.058;2023-10-13T11:22:57;22.20;93.30
23271;DHT22;11804;51.118;17.058;2023-10-13T11:25:26;22.00;92.90
23271;DHT22;11804;51.118;17.058;2023-10-13T11:27:58;21.80;93.60
23271;DHT22;11804;51.118;17.058;2023-10-13T11:30:29;21.70;94.30
23271;DHT22;11804;51.118;17.058;2023-10-13T11:33:05;21.80;95.40
23271;DHT22;11804;51.118;17.058;2023-10-13T11:35:34;22.10;93.50
23271;DHT22;11804;51.118;17.058;2023-10-13T11:38:24;22.00;93.40
23271;DHT22;11804;51.118;17.058;2023-10-13T11:40:59;22.00;93.40
23271;DHT22;11804;51.118;17.058;2023-10-13T11:43:41;21.80;95.10
23271;DHT22;11804;51.118;17.058;2023-10-13T11:46:12;21.90;95.80
23271;DHT22;11804;51.118;17.058;2023-10-13T11:48:42;22.00;95.30
23271;DHT22;11804;51.118;17.058;2023-10-13T11:51:13;22.00;95.60
23271;DHT22;11804;51.118;17.058;2023-10-13T11:53:54;22.30;94.30
23271;DHT22;11804;51.118;17.058;2023-10-13T11:56:22;22.00;95.50
23271;DHT22;11804;51.118;17.058;2023-10-13T11:58:51;22.00;95.50
23271;DHT22;11804;51.118;17.058;2023-10-13T12:01:19;22.00;95.90
23271;DHT22;11804;51.118;17.058;2023-10-13T12:03:48;21.90;95.10
23271;DHT22;11804;51.118;17.058;2023-10-13T12:06:36;22.00;95.00
23271;DHT22;11804;51.118;17.058;2023-10-13T12:09:10;22.30;95.00
23271;DHT22;11804;51.118;17.058;2023-10-13T12:11:47;22.30;93.50
23271;DHT22;11804;51.118;17.058;2023-10-13T12:14:17;22.20;93.40
23271;DHT22;11804;51.118;17.058;2023-10-13T12:16:58;22.00;93.50
23271;DHT22;11804;51.118;17.058;2023-10-13T12:19:27;21.80;95.10
23271;DHT22;11804;51.118;17.058;2023-10-13T12:21:56;21.80;95.90
23271;DHT22;11804;51.118;17.058;2023-10-13T12:24:27;21.70;96.50
23271;DHT22;11804;51.118;17.058;2023-10-13T12:27:08;22.00;95.70
23271;DHT22;11804;51.118;17.058;2023-10-13T12:29:46;22.30;94.80
23271;DHT22;11804;51.118;17.058;2023-10-13T12:32:15;22.20;96.40
23271;DHT22;11804;51.118;17.058;2023-10-13T12:34:44;22.10;96.20
23271;DHT22;11804;51.118;17.058;2023-10-13T12:37:32;22.10;95.90
23271;DHT22;11804;51.118;17.058;2023-10-13T12:40:10;22.00;96.80
23271;DHT22;11804;51.118;17.058;2023-10-13T12:42:56;21.90;97.10
23271;DHT22;11804;51.118;17.058;2023-10-13T12:45:43;21.70;98.10
23271;DHT22;11804;51.118;17.058;2023-10-13T12:48:29;21.60;99.60
23271;DHT22;11804;51.118;17.058;2023-10-13T12:51:15;21.40;99.90
23271;DHT22;11804;51.118;17.058;2023-10-13T12:53:57;21.40;99.90
23271;DHT22;11804;51.118;17.058;2023-10-13T12:56:32;21.40;99.90
23271;DHT22;11804;51.118;17.058;2023-10-13T12:59:00;21.40;99.90
23271;DHT22;11804;51.118;17.058;2023-10-13T13:01:29;21.30;99.90
23271;DHT22;11804;51.118;17.058;2023-10-13T13:04:00;21.20;99.90
23271;DHT22;11804;51.118;17.058;2023-10-13T13:06:30;21.20;99.90
23271;DHT22;11804;51.118;17.058;2023-10-13T13:08:59;21.20;99.90
23271;DHT22;11804;51.118;17.058;2023-10-13T13:11:27;21.20;99.90
23271;DHT22;11804;51.118;17.058;2023-10-13T13:13:58;21.20;99.90
23271;DHT22;11804;51.118;17.058;2023-10-13T13:16:25;21.20;99.90
23271;DHT22;11804;51.118;17.058;2023-10-13T13:18:55;21.20;99.90
23271;DHT22;11804;51.118;17.058;2023-10-13T13:21:22;21.10;99.90
23271;DHT22;11804;51.118;17.058;2023-10-13T13:23:51;21.10;99.90
23271;DHT22;11804;51.118;17.058;2023-10-13T13:26:25;21.10;99.90
23271;DHT22;11804;51.118;17.058;2023-10-13T13:28:50;21.00;99.90
23271;DHT22;11804;51.118;17.058;2023-10-13T13:31:19;20.90;99.90
23271;DHT22;11804;51.118;17.058;2023-10-13T13:33:48;20.80;99.90
23271;DHT22;11804;51.118;17.058;2023-10-13T13:36:16;20.80;99.90
23271;DHT22;11804;51.118;17.058;2023-10-13T13:38:44;20.90;99.90
23271;DHT22;11804;51.118;17.058;2023-10-13T13:41:19;21.00;99.90
23271;DHT22;11804;51.118;17.058;2023-10-13T13:43:49;21.10;99.90
23271;DHT22;11804;51.118;17.058;2023-10-13T13:46:19;21.10;99.90
23271;DHT22;11804;51.118;17.058;2023-10-13T13:48:49;21.10;99.90
23271;DHT22;11804;51.118;17.058;2023-10-13T13:51:18;21.10;99.90
23271;DHT22;11804;51.118;17.058;2023-10-13T13:53:53;21.10;99.90
23271;DHT22;11804;51.118;17.058;2023-10-13T13:56:21;21.00;99.90
23271;DHT22;11804;51.118;17.058;2023-10-13T13:58:51;21.10;99.90
23271;DHT22;11804;51.118;17.058;2023-10-13T14:01:20;21.20;99.90
23271;DHT22;11804;51.118;17.058;2023-10-13T14:03:49;21.30;99.90
23271;DHT22;11804;51.118;17.058;2023-10-13T14:06:18;21.20;99.90
23271;DHT22;11804;51.118;17.058;2023-10-13T14:08:57;21.20;99.90
23271;DHT22;11804;51.118;17.058;2023-10-13T14:11:31;21.20;99.90
23271;DHT22;11804;51.118;17.058;2023-10-13T14:14:14;21.20;99.90
23271;DHT22;11804;51.118;17.058;2023-10-13T14:16:40;21.10;99.90
23271;DHT22;11804;51.118;17.058;2023-10-13T14:19:14;21.10;99.90
23271;DHT22;11804;51.118;17.058;2023-10-13T14:21:55;21.10;99.90
23271;DHT22;11804;51.118;17.058;2023-10-13T14:24:23;21.00;99.90
23271;DHT22;11804;51.118;17.058;2023-10-13T14:26:56;21.00;99.90
23271;DHT22;11804;51.118;17.058;2023-10-13T14:29:27;21.00;99.90
23271;DHT22;11804;51.118;17.058;2023-10-13T14:31:54;20.90;99.90
23271;DHT22;11804;51.118;17.058;2023-10-13T14:34:22;20.90;99.90
23271;DHT22;11804;51.118;17.058;2023-10-13T14:36:49;20.80;99.90
23271;DHT22;11804;51.118;17.058;2023-10-13T14:39:17;20.80;99.90
23271;DHT22;11804;51.118;17.058;2023-10-13T14:41:46;20.80;99.90
23271;DHT22;11804;51.118;17.058;2023-10-13T14:44:14;20.80;99.90
23271;DHT22;11804;51.118;17.058;2023-10-13T14:46:42;20.70;99.90
23271;DHT22;11804;51.118;17.058;2023-10-13T14:49:10;20.70;99.90
23271;DHT22;11804;51.118;17.058;2023-10-13T14:51:40;20.70;99.90
23271;DHT22;11804;51.118;17.058;2023-10-13T14:54:07;20.70;99.90
23271;DHT22;11804;51.118;17.058;2023-10-13T14:56:35;20.70;99.90
23271;DHT22;11804;51.118;17.058;2023-10-13T14:59:02;20.70;99.90
23271;DHT22;11804;51.118;17.058;2023-10-13T15:01:31;20.70;99.90
23271;DHT22;11804;51.118;17.058;2023-10-13T15:03:58;20.60;99.90
23271;DHT22;11804;51.118;17.058;2023-10-13T15:06:27;20.70;99.90
23271;DHT22;11804;51.118;17.058;2023-10-13T15:09:00;20.70;99.90
23271;DHT22;11804;51.118;17.058;2023-10-13T15:11:29;20.70;99.90
23271;DHT22;11804;51.118;17.058;2023-10-13T15:14:04;20.60;99.90
23271;DHT22;11804;51.118;17.058;2023-10-13T15:16:33;20.60;99.90
23271;DHT22;11804;51.118;17.058;2023-10-13T15:19:01;20.50;99.90
23271;DHT22;11804;51.118;17.058;2023-10-13T15:21:31;20.50;99.90
23271;DHT22;11804;51.118;17.058;2023-10-13T15:24:02;20.50;99.90
23271;DHT22;11804;51.118;17.058;2023-10-13T15:26:31;20.50;99.90
23271;DHT22;11804;51.118;17.058;2023-10-13T15:29:00;20.50;99.90
23271;DHT22;11804;51.118;17.058;2023-10-13T15:31:29;20.50;99.90
23271;DHT22;11804;51.118;17.058;2023-10-13T15:34:02;20.40;99.90
23271;DHT22;11804;51.118;17.058;2023-10-13T15:36:44;20.40;99.90
23271;DHT22;11804;51.118;17.058;2023-10-13T15:39:12;20.40;99.90
23271;DHT22;11804;51.118;17.058;2023-10-13T15:41:42;20.40;99.90
23271;DHT22;11804;51.118;17.058;2023-10-13T15:44:13;20.30;99.90
23271;DHT22;11804;51.118;17.058;2023-10-13T15:46:42;20.30;99.90
23271;DHT22;11804;51.118;17.058;2023-10-13T15:49:11;20.30;99.90
23271;DHT22;11804;51.118;17.058;2023-10-13T15:51:39;20.20;99.90
23271;DHT22;11804;51.118;17.058;2023-10-13T15:54:06;20.20;99.90
23271;DHT22;11804;51.118;17.058;2023-10-13T15:56:36;20.10;99.90
23271;DHT22;11804;51.118;17.058;2023-10-13T15:59:05;20.00;99.90
23271;DHT22;11804;51.118;17.058;2023-10-13T16:01:33;20.00;99.90
23271;DHT22;11804;51.118;17.058;2023-10-13T16:04:04;20.00;99.90
23271;DHT22;11804;51.118;17.058;2023-10-13T16:06:33;20.00;99.90
23271;DHT22;11804;51.118;17.058;2023-10-13T16:09:01;20.00;99.90
23271;DHT22;11804;51.118;17.058;2023-10-13T16:11:29;19.90;99.90